sensor_id;sensor_type;location;lat;lon;timestamp;pressure;altitude;pressure_sealevel;temperature;humidity
71105;BME280;58760;48.716;8.962;2023-07-31T00:01:27;96550.75;;;14.89;81.23
71105;BME280;58760;48.716;8.962;2023-07-31T00:03:52;96556.09;;;14.89;80.47
71105;BME280;58760;48.716;8.962;2023-07-31T00:06:17;96554.19;;;14.83;81.21
71105;BME280;58760;48.716;8.962;2023-07-31T00:08:43;96559.75;;;14.81;83.83
71105;BME280;58760;48.716;8.962;2023-07-31T00:11:08;96556.03;;;14.76;83.14
71105;BME280;58760;48.716;8.962;2023-07-31T00:13:33;96559.72;;;14.75;82.25
71105;BME280;58760;48.716;8.962;2023-07-31T00:15:59;96566.88;;;14.68;81.45
71105;BME280;58760;48.716;8.962;2023-07-31T00:18:24;96570.97;;;14.63;81.97
71105;BME280;58760;48.716;8.962;2023-07-31T00:20:50;96576.16;;;14.72;81.81
71105;BME280;58760;48.716;8.962;2023-07-31T00:23:15;96570.78;;;14.65;82.39
71105;BME280;58760;48.716;8.962;2023-07-31T00:25:41;96572.84;;;14.63;82.41
71105;BME280;58760;48.716;8.962;2023-07-31T00:28:06;96564.56;;;14.58;82.94
71105;BME280;58760;48.716;8.962;2023-07-31T00:30:42;96563.66;;;14.44;84.76
71105;BME280;58760;48.716;8.962;2023-07-31T00:33:08;96568.13;;;14.37;85.68
71105;BME280;58760;48.716;8.962;2023-07-31T00:35:33;96568.25;;;14.29;85.22
71105;BME280;58760;48.716;8.962;2023-07-31T00:37:58;96569.66;;;14.25;85.72
71105;BME280;58760;48.716;8.962;2023-07-31T00:40:24;96573.88;;;14.13;85.40
71105;BME280;58760;48.716;8.962;2023-07-31T00:42:49;96557.50;;;14.16;85.60
71105;BME280;58760;48.716;8.962;2023-07-31T00:45:15;96558.44;;;14.08;85.03
71105;BME280;58760;48.716;8.962;2023-07-31T00:47:40;96553.44;;;13.99;86.52
71105;BME280;58760;48.716;8.962;2023-07-31T00:50:06;96547.66;;;13.95;86.30
71105;BME280;58760;48.716;8.962;2023-07-31T00:52:32;96547.22;;;13.92;86.61
71105;BME280;58760;48.716;8.962;2023-07-31T00:54:57;96547.13;;;13.79;87.10
71105;BME280;58760;48.716;8.962;2023-07-31T00:57:23;96552.84;;;13.76;88.25
71105;BME280;58760;48.716;8.962;2023-07-31T00:59:49;96550.22;;;14.03;86.89
71105;BME280;58760;48.716;8.962;2023-07-31T01:02:14;96550.66;;;14.07;86.23
71105;BME280;58760;48.716;8.962;2023-07-31T01:04:41;96546.78;;;13.88;87.04
71105;BME280;58760;48.716;8.962;2023-07-31T01:12:36;96549.28;;;13.90;88.04
71105;BME280;58760;48.716;8.962;2023-07-31T01:15:08;96531.81;;;13.87;88.18
71105;BME280;58760;48.716;8.962;2023-07-31T01:17:38;96542.72;;;13.92;87.42
71105;BME280;58760;48.716;8.962;2023-07-31T01:20:05;96543.44;;;13.80;87.61
71105;BME280;58760;48.716;8.962;2023-07-31T01:28:14;96527.50;;;13.86;87.64
71105;BME280;58760;48.716;8.962;2023-07-31T01:30:44;96538.47;;;13.98;86.86
71105;BME280;58760;48.716;8.962;2023-07-31T01:33:14;96534.78;;;13.99;86.64
71105;BME280;58760;48.716;8.962;2023-07-31T01:35:43;96535.81;;;13.98;86.66
71105;BME280;58760;48.716;8.962;2023-07-31T01:38:09;96539.28;;;13.98;86.10
71105;BME280;58760;48.716;8.962;2023-07-31T01:40:40;96533.47;;;14.16;85.81
71105;BME280;58760;48.716;8.962;2023-07-31T01:43:06;96527.03;;;14.04;85.99
71105;BME280;58760;48.716;8.962;2023-07-31T01:45:31;96524.31;;;13.97;86.77
71105;BME280;58760;48.716;8.962;2023-07-31T01:47:57;96523.59;;;13.89;86.69
71105;BME280;58760;48.716;8.962;2023-07-31T01:50:22;96523.44;;;13.90;86.62
71105;BME280;58760;48.716;8.962;2023-07-31T01:52:48;96523.59;;;13.89;86.59
71105;BME280;58760;48.716;8.962;2023-07-31T01:55:13;96518.31;;;13.95;86.02
71105;BME280;58760;48.716;8.962;2023-07-31T01:57:38;96518.09;;;13.90;85.29
71105;BME280;58760;48.716;8.962;2023-07-31T02:00:04;96508.69;;;13.94;84.81
71105;BME280;58760;48.716;8.962;2023-07-31T02:02:30;96512.81;;;13.97;85.50
71105;BME280;58760;48.716;8.962;2023-07-31T02:04:55;96501.69;;;13.93;86.16
71105;BME280;58760;48.716;8.962;2023-07-31T02:07:21;96495.91;;;13.90;86.41
71105;BME280;58760;48.716;8.962;2023-07-31T02:09:46;96504.53;;;13.92;86.93
71105;BME280;58760;48.716;8.962;2023-07-31T02:12:13;96497.16;;;13.87;86.00
71105;BME280;58760;48.716;8.962;2023-07-31T02:14:40;96500.78;;;13.80;86.44
71105;BME280;58760;48.716;8.962;2023-07-31T02:17:05;96497.53;;;13.84;86.32
71105;BME280;58760;48.716;8.962;2023-07-31T02:19:31;96490.09;;;13.80;86.00
71105;BME280;58760;48.716;8.962;2023-07-31T02:21:56;96492.31;;;13.76;86.82
71105;BME280;58760;48.716;8.962;2023-07-31T02:24:21;96488.25;;;13.80;87.54
71105;BME280;58760;48.716;8.962;2023-07-31T02:26:47;96487.19;;;13.75;86.75
71105;BME280;58760;48.716;8.962;2023-07-31T02:29:12;96485.53;;;13.74;89.78
71105;BME280;58760;48.716;8.962;2023-07-31T02:31:37;96485.50;;;13.67;88.65
71105;BME280;58760;48.716;8.962;2023-07-31T02:34:03;96474.38;;;13.63;89.63
71105;BME280;58760;48.716;8.962;2023-07-31T02:36:28;96475.09;;;13.51;88.17
71105;BME280;58760;48.716;8.962;2023-07-31T02:38:53;96472.44;;;13.51;88.50
71105;BME280;58760;48.716;8.962;2023-07-31T02:41:19;96476.38;;;13.55;89.21
71105;BME280;58760;48.716;8.962;2023-07-31T02:43:44;96471.59;;;13.50;88.45
71105;BME280;58760;48.716;8.962;2023-07-31T02:46:09;96473.75;;;13.61;88.54
71105;BME280;58760;48.716;8.962;2023-07-31T02:48:35;96469.59;;;13.52;87.84
71105;BME280;58760;48.716;8.962;2023-07-31T02:51:00;96471.16;;;13.47;89.34
71105;BME280;58760;48.716;8.962;2023-07-31T02:53:25;96474.16;;;13.37;89.97
71105;BME280;58760;48.716;8.962;2023-07-31T02:55:51;96467.16;;;13.36;90.19
71105;BME280;58760;48.716;8.962;2023-07-31T02:58:16;96463.75;;;13.42;89.68
71105;BME280;58760;48.716;8.962;2023-07-31T03:00:43;96461.44;;;13.33;90.50
71105;BME280;58760;48.716;8.962;2023-07-31T03:03:08;96457.28;;;13.30;91.32
71105;BME280;58760;48.716;8.962;2023-07-31T03:05:33;96463.38;;;13.24;91.69
71105;BME280;58760;48.716;8.962;2023-07-31T03:07:59;96458.69;;;13.26;92.02
71105;BME280;58760;48.716;8.962;2023-07-31T03:10:24;96464.47;;;13.30;91.16
71105;BME280;58760;48.716;8.962;2023-07-31T03:12:49;96463.66;;;13.29;91.41
71105;BME280;58760;48.716;8.962;2023-07-31T03:15:15;96469.84;;;13.36;90.61
71105;BME280;58760;48.716;8.962;2023-07-31T03:17:40;96473.84;;;13.47;89.34
71105;BME280;58760;48.716;8.962;2023-07-31T03:20:06;96463.50;;;13.58;88.87
71105;BME280;58760;48.716;8.962;2023-07-31T03:22:31;96463.50;;;13.58;88.07
71105;BME280;58760;48.716;8.962;2023-07-31T03:24:57;96462.06;;;13.62;87.68
71105;BME280;58760;48.716;8.962;2023-07-31T03:27:22;96461.66;;;13.66;86.67
71105;BME280;58760;48.716;8.962;2023-07-31T03:30:07;96459.00;;;13.66;87.09
71105;BME280;58760;48.716;8.962;2023-07-31T03:32:33;96461.88;;;13.64;87.21
71105;BME280;58760;48.716;8.962;2023-07-31T03:35:04;96475.72;;;13.74;86.40
71105;BME280;58760;48.716;8.962;2023-07-31T03:37:30;96475.31;;;13.77;85.64
71105;BME280;58760;48.716;8.962;2023-07-31T03:40:16;96465.09;;;13.81;85.44
71105;BME280;58760;48.716;8.962;2023-07-31T03:42:41;96470.84;;;13.84;85.60
71105;BME280;58760;48.716;8.962;2023-07-31T03:45:14;96467.59;;;13.89;85.06
71105;BME280;58760;48.716;8.962;2023-07-31T03:47:40;96469.25;;;13.90;85.12
71105;BME280;58760;48.716;8.962;2023-07-31T03:50:06;96473.56;;;13.91;84.72
71105;BME280;58760;48.716;8.962;2023-07-31T03:52:31;96471.00;;;14.04;84.01
71105;BME280;58760;48.716;8.962;2023-07-31T03:54:56;96468.47;;;13.96;84.80
71105;BME280;58760;48.716;8.962;2023-07-31T03:57:22;96469.28;;;13.96;85.46
71105;BME280;58760;48.716;8.962;2023-07-31T03:59:47;96469.28;;;13.96;85.58
71105;BME280;58760;48.716;8.962;2023-07-31T04:02:12;96475.94;;;14.07;84.75
71105;BME280;58760;48.716;8.962;2023-07-31T04:04:39;96467.28;;;14.05;84.97
71105;BME280;58760;48.716;8.962;2023-07-31T04:07:04;96468.13;;;14.05;84.56
71105;BME280;58760;48.716;8.962;2023-07-31T04:09:30;96460.34;;;14.10;84.05
71105;BME280;58760;48.716;8.962;2023-07-31T04:11:55;96463.03;;;14.10;83.95
71105;BME280;58760;48.716;8.962;2023-07-31T04:14:20;96470.22;;;14.10;87.07
71105;BME280;58760;48.716;8.962;2023-07-31T04:16:46;96459.94;;;14.07;86.09
71105;BME280;58760;48.716;8.962;2023-07-31T04:19:11;96452.06;;;13.99;86.60
71105;BME280;58760;48.716;8.962;2023-07-31T04:21:41;96450.19;;;13.93;87.15
71105;BME280;58760;48.716;8.962;2023-07-31T04:24:06;96455.94;;;13.96;87.10
71105;BME280;58760;48.716;8.962;2023-07-31T04:26:32;96461.88;;;13.92;87.68
71105;BME280;58760;48.716;8.962;2023-07-31T04:28:57;96456.91;;;13.89;87.46
71105;BME280;58760;48.716;8.962;2023-07-31T04:31:22;96459.63;;;13.95;87.79
71105;BME280;58760;48.716;8.962;2023-07-31T04:33:48;96459.84;;;13.94;87.99
71105;BME280;58760;48.716;8.962;2023-07-31T04:36:13;96466.44;;;13.98;86.41
71105;BME280;58760;48.716;8.962;2023-07-31T04:38:39;96459.94;;;14.07;87.80
71105;BME280;58760;48.716;8.962;2023-07-31T04:41:06;96464.88;;;14.10;86.60
71105;BME280;58760;48.716;8.962;2023-07-31T04:43:31;96468.59;;;14.15;86.04
71105;BME280;58760;48.716;8.962;2023-07-31T04:45:56;96463.69;;;14.19;87.70
71105;BME280;58760;48.716;8.962;2023-07-31T04:48:23;96456.13;;;14.23;87.78
71105;BME280;58760;48.716;8.962;2023-07-31T04:50:48;96457.94;;;14.22;87.46
71105;BME280;58760;48.716;8.962;2023-07-31T04:53:14;96457.94;;;14.22;87.57
71105;BME280;58760;48.716;8.962;2023-07-31T04:55:39;96464.31;;;14.21;88.25
71105;BME280;58760;48.716;8.962;2023-07-31T04:58:05;96458.56;;;14.24;88.51
71105;BME280;58760;48.716;8.962;2023-07-31T05:00:30;96456.31;;;14.28;87.52
71105;BME280;58760;48.716;8.962;2023-07-31T05:02:55;96454.50;;;14.28;87.38
71105;BME280;58760;48.716;8.962;2023-07-31T05:05:21;96455.53;;;14.27;86.71
71105;BME280;58760;48.716;8.962;2023-07-31T05:07:46;96457.22;;;14.35;87.06
71105;BME280;58760;48.716;8.962;2023-07-31T05:10:12;96445.97;;;14.39;87.05
71105;BME280;58760;48.716;8.962;2023-07-31T05:12:37;96456.81;;;14.38;87.47
71105;BME280;58760;48.716;8.962;2023-07-31T05:15:03;96461.78;;;14.41;87.49
71105;BME280;58760;48.716;8.962;2023-07-31T05:17:28;96453.59;;;14.49;87.08
71105;BME280;58760;48.716;8.962;2023-07-31T05:19:54;96447.03;;;14.51;87.58
71105;BME280;58760;48.716;8.962;2023-07-31T05:22:19;96451.97;;;14.54;87.85
71105;BME280;58760;48.716;8.962;2023-07-31T05:24:44;96442.72;;;14.57;88.03
71105;BME280;58760;48.716;8.962;2023-07-31T05:27:10;96452.63;;;14.56;88.43
71105;BME280;58760;48.716;8.962;2023-07-31T05:29:35;96451.81;;;14.62;89.24
71105;BME280;58760;48.716;8.962;2023-07-31T05:32:01;96458.81;;;14.70;89.61
71105;BME280;58760;48.716;8.962;2023-07-31T05:34:26;96458.25;;;14.81;87.84
71105;BME280;58760;48.716;8.962;2023-07-31T05:36:53;96460.72;;;14.89;86.60
71105;BME280;58760;48.716;8.962;2023-07-31T05:39:18;96454.63;;;15.02;86.88
71105;BME280;58760;48.716;8.962;2023-07-31T05:41:55;96460.59;;;15.17;86.69
71105;BME280;58760;48.716;8.962;2023-07-31T05:44:21;96462.03;;;15.26;86.07
71105;BME280;58760;48.716;8.962;2023-07-31T05:46:46;96449.13;;;15.49;85.73
71105;BME280;58760;48.716;8.962;2023-07-31T05:49:11;96443.19;;;15.60;84.07
71105;BME280;58760;48.716;8.962;2023-07-31T05:51:37;96445.44;;;15.63;84.41
71105;BME280;58760;48.716;8.962;2023-07-31T05:54:02;96440.88;;;15.70;80.45
71105;BME280;58760;48.716;8.962;2023-07-31T05:56:27;96447.28;;;15.83;79.86
71105;BME280;58760;48.716;8.962;2023-07-31T05:58:53;96438.00;;;15.92;78.63
71105;BME280;58760;48.716;8.962;2023-07-31T06:01:18;96447.03;;;16.04;78.57
71105;BME280;58760;48.716;8.962;2023-07-31T06:03:44;96441.88;;;16.22;76.05
71105;BME280;58760;48.716;8.962;2023-07-31T06:06:09;96436.47;;;16.35;75.22
71105;BME280;58760;48.716;8.962;2023-07-31T06:08:35;96444.69;;;16.40;75.28
71105;BME280;58760;48.716;8.962;2023-07-31T06:11:00;96442.41;;;16.44;75.23
71105;BME280;58760;48.716;8.962;2023-07-31T06:13:25;96439.69;;;16.50;75.98
71105;BME280;58760;48.716;8.962;2023-07-31T06:15:51;96443.41;;;16.56;75.73
71105;BME280;58760;48.716;8.962;2023-07-31T06:18:16;96424.47;;;16.57;75.06
71105;BME280;58760;48.716;8.962;2023-07-31T06:20:41;96431.66;;;16.50;75.93
71105;BME280;58760;48.716;8.962;2023-07-31T06:23:07;96448.13;;;16.54;75.79
71105;BME280;58760;48.716;8.962;2023-07-31T06:25:33;96440.94;;;16.54;75.76
71105;BME280;58760;48.716;8.962;2023-07-31T06:27:58;96437.84;;;16.57;77.20
71105;BME280;58760;48.716;8.962;2023-07-31T06:30:23;96440.28;;;16.65;74.94
71105;BME280;58760;48.716;8.962;2023-07-31T06:32:49;96436.78;;;16.65;74.56
71105;BME280;58760;48.716;8.962;2023-07-31T06:35:14;96437.91;;;16.89;74.83
71105;BME280;58760;48.716;8.962;2023-07-31T06:37:39;96430.84;;;16.94;74.72
71105;BME280;58760;48.716;8.962;2023-07-31T06:40:06;96432.03;;;17.05;73.47
71105;BME280;58760;48.716;8.962;2023-07-31T06:42:34;96430.66;;;17.27;72.50
71105;BME280;58760;48.716;8.962;2023-07-31T06:45:00;96429.63;;;17.28;71.81
71105;BME280;58760;48.716;8.962;2023-07-31T06:47:25;96437.63;;;17.35;71.46
71105;BME280;58760;48.716;8.962;2023-07-31T06:49:51;96443.00;;;17.35;70.57
71105;BME280;58760;48.716;8.962;2023-07-31T06:52:16;96445.19;;;17.44;69.85
71105;BME280;58760;48.716;8.962;2023-07-31T06:54:42;96438.50;;;17.53;70.05
71105;BME280;58760;48.716;8.962;2023-07-31T06:57:07;96438.50;;;17.53;69.73
71105;BME280;58760;48.716;8.962;2023-07-31T06:59:33;96436.03;;;17.58;69.10
71105;BME280;58760;48.716;8.962;2023-07-31T07:01:58;96439.41;;;17.72;69.32
71105;BME280;58760;48.716;8.962;2023-07-31T07:04:24;96437.66;;;17.84;67.05
71105;BME280;58760;48.716;8.962;2023-07-31T07:06:49;96432.69;;;18.06;66.39
71105;BME280;58760;48.716;8.962;2023-07-31T07:09:14;96437.81;;;18.14;66.05
71105;BME280;58760;48.716;8.962;2023-07-31T07:11:40;96430.03;;;18.24;66.00
71105;BME280;58760;48.716;8.962;2023-07-31T07:14:05;96433.91;;;18.28;65.52
71105;BME280;58760;48.716;8.962;2023-07-31T07:16:31;96428.72;;;18.33;64.82
71105;BME280;58760;48.716;8.962;2023-07-31T07:18:56;96433.84;;;18.35;66.10
71105;BME280;58760;48.716;8.962;2023-07-31T07:21:21;96419.81;;;18.33;66.52
71105;BME280;58760;48.716;8.962;2023-07-31T07:23:47;96422.34;;;18.27;67.35
71105;BME280;58760;48.716;8.962;2023-07-31T07:26:12;96424.31;;;18.20;66.23
71105;BME280;58760;48.716;8.962;2023-07-31T07:28:37;96412.50;;;18.21;66.24
71105;BME280;58760;48.716;8.962;2023-07-31T07:31:03;96410.47;;;17.99;67.08
71105;BME280;58760;48.716;8.962;2023-07-31T07:33:28;96413.97;;;17.99;67.24
71105;BME280;58760;48.716;8.962;2023-07-31T07:35:54;96397.72;;;18.12;67.35
71105;BME280;58760;48.716;8.962;2023-07-31T07:38:19;96402.50;;;18.28;67.46
71105;BME280;58760;48.716;8.962;2023-07-31T07:40:45;96410.63;;;18.22;67.29
71105;BME280;58760;48.716;8.962;2023-07-31T07:43:12;96411.22;;;18.24;66.98
71105;BME280;58760;48.716;8.962;2023-07-31T07:45:37;96413.63;;;18.32;65.31
71105;BME280;58760;48.716;8.962;2023-07-31T07:48:03;96411.06;;;18.37;65.99
71105;BME280;58760;48.716;8.962;2023-07-31T07:50:28;96411.38;;;18.47;64.90
71105;BME280;58760;48.716;8.962;2023-07-31T07:52:54;96403.19;;;18.60;65.08
71105;BME280;58760;48.716;8.962;2023-07-31T07:55:19;96401.59;;;18.71;64.91
71105;BME280;58760;48.716;8.962;2023-07-31T07:57:44;96402.72;;;18.63;63.96
71105;BME280;58760;48.716;8.962;2023-07-31T08:00:11;96403.91;;;18.86;64.81
71105;BME280;58760;48.716;8.962;2023-07-31T08:02:38;96399.41;;;18.79;63.58
71105;BME280;58760;48.716;8.962;2023-07-31T08:05:03;96405.59;;;18.80;62.88
71105;BME280;58760;48.716;8.962;2023-07-31T08:07:29;96403.38;;;18.77;62.81
71105;BME280;58760;48.716;8.962;2023-07-31T08:09:54;96395.00;;;18.85;63.93
71105;BME280;58760;48.716;8.962;2023-07-31T08:12:19;96400.88;;;18.94;63.25
71105;BME280;58760;48.716;8.962;2023-07-31T08:14:45;96393.28;;;19.02;61.91
71105;BME280;58760;48.716;8.962;2023-07-31T08:17:10;96396.50;;;19.11;62.57
71105;BME280;58760;48.716;8.962;2023-07-31T08:19:36;96400.38;;;19.15;61.35
71105;BME280;58760;48.716;8.962;2023-07-31T08:22:01;96398.84;;;19.19;60.75
71105;BME280;58760;48.716;8.962;2023-07-31T08:24:26;96393.38;;;19.25;61.84
71105;BME280;58760;48.716;8.962;2023-07-31T08:26:52;96383.44;;;19.26;60.97
71105;BME280;58760;48.716;8.962;2023-07-31T08:29:17;96383.78;;;19.29;61.62
71105;BME280;58760;48.716;8.962;2023-07-31T08:31:42;96391.59;;;19.08;61.37
71105;BME280;58760;48.716;8.962;2023-07-31T08:34:08;96380.63;;;19.21;60.54
71105;BME280;58760;48.716;8.962;2023-07-31T08:36:33;96373.56;;;19.08;61.54
71105;BME280;58760;48.716;8.962;2023-07-31T08:38:59;96371.56;;;19.04;61.41
71105;BME280;58760;48.716;8.962;2023-07-31T08:41:24;96371.53;;;18.92;61.57
71105;BME280;58760;48.716;8.962;2023-07-31T08:43:52;96370.38;;;19.00;61.68
71105;BME280;58760;48.716;8.962;2023-07-31T08:46:19;96358.69;;;19.06;61.25
71105;BME280;58760;48.716;8.962;2023-07-31T08:48:45;96365.97;;;19.17;61.43
71105;BME280;58760;48.716;8.962;2023-07-31T08:51:14;96368.59;;;19.35;61.43
71105;BME280;58760;48.716;8.962;2023-07-31T08:53:39;96369.72;;;19.57;60.61
71105;BME280;58760;48.716;8.962;2023-07-31T08:56:06;96372.28;;;19.75;61.05
71105;BME280;58760;48.716;8.962;2023-07-31T08:58:34;96370.88;;;20.08;59.50
71105;BME280;58760;48.716;8.962;2023-07-31T09:01:04;96372.00;;;20.23;58.56
71105;BME280;58760;48.716;8.962;2023-07-31T09:03:33;96346.94;;;20.23;57.55
71105;BME280;58760;48.716;8.962;2023-07-31T09:05:59;96339.69;;;20.35;58.15
71105;BME280;58760;48.716;8.962;2023-07-31T09:08:24;96334.53;;;20.33;58.02
71105;BME280;58760;48.716;8.962;2023-07-31T09:10:51;96328.72;;;20.53;56.98
71105;BME280;58760;48.716;8.962;2023-07-31T09:13:17;96339.88;;;20.45;56.94
71105;BME280;58760;48.716;8.962;2023-07-31T09:15:44;96346.47;;;20.26;57.06
71105;BME280;58760;48.716;8.962;2023-07-31T09:18:10;96354.34;;;20.27;56.93
71105;BME280;58760;48.716;8.962;2023-07-31T09:20:36;96348.25;;;20.09;57.43
71105;BME280;58760;48.716;8.962;2023-07-31T09:23:07;96342.03;;;20.20;57.59
71105;BME280;58760;48.716;8.962;2023-07-31T09:25:33;96356.09;;;20.10;56.55
71105;BME280;58760;48.716;8.962;2023-07-31T09:28:04;96354.38;;;19.93;57.91
71105;BME280;58760;48.716;8.962;2023-07-31T09:30:30;96353.19;;;20.00;57.84
71105;BME280;58760;48.716;8.962;2023-07-31T09:33:03;96346.75;;;20.01;58.14
71105;BME280;58760;48.716;8.962;2023-07-31T09:35:31;96329.84;;;20.29;57.82
71105;BME280;58760;48.716;8.962;2023-07-31T09:37:59;96330.72;;;20.46;56.93
71105;BME280;58760;48.716;8.962;2023-07-31T09:40:32;96320.72;;;20.58;58.29
71105;BME280;58760;48.716;8.962;2023-07-31T09:43:00;96305.22;;;20.65;56.04
71105;BME280;58760;48.716;8.962;2023-07-31T09:45:26;96308.59;;;20.72;56.24
71105;BME280;58760;48.716;8.962;2023-07-31T09:47:52;96304.72;;;20.68;55.25
71105;BME280;58760;48.716;8.962;2023-07-31T09:50:19;96297.53;;;20.57;56.04
71105;BME280;58760;48.716;8.962;2023-07-31T09:52:44;96302.72;;;20.47;56.61
71105;BME280;58760;48.716;8.962;2023-07-31T09:55:10;96293.19;;;20.56;55.59
71105;BME280;58760;48.716;8.962;2023-07-31T09:57:45;96295.28;;;20.82;55.04
71105;BME280;58760;48.716;8.962;2023-07-31T10:00:13;96292.50;;;20.94;54.60
71105;BME280;58760;48.716;8.962;2023-07-31T10:02:39;96291.94;;;20.92;54.95
71105;BME280;58760;48.716;8.962;2023-07-31T10:05:05;96284.53;;;20.99;55.14
71105;BME280;58760;48.716;8.962;2023-07-31T10:07:37;96285.63;;;21.15;54.33
71105;BME280;58760;48.716;8.962;2023-07-31T10:10:04;96284.25;;;21.01;52.24
71105;BME280;58760;48.716;8.962;2023-07-31T10:12:31;96276.75;;;21.03;53.42
71105;BME280;58760;48.716;8.962;2023-07-31T10:14:59;96275.38;;;21.00;52.69
71105;BME280;58760;48.716;8.962;2023-07-31T10:17:25;96271.44;;;21.08;53.98
71105;BME280;58760;48.716;8.962;2023-07-31T10:19:51;96270.09;;;21.22;52.00
71105;BME280;58760;48.716;8.962;2023-07-31T10:22:19;96263.75;;;21.50;52.72
71105;BME280;58760;48.716;8.962;2023-07-31T10:24:46;96280.88;;;21.55;51.66
71105;BME280;58760;48.716;8.962;2023-07-31T10:27:11;96269.16;;;21.33;51.59
71105;BME280;58760;48.716;8.962;2023-07-31T10:29:38;96266.97;;;21.30;51.54
71105;BME280;58760;48.716;8.962;2023-07-31T10:32:05;96268.09;;;21.34;53.29
71105;BME280;58760;48.716;8.962;2023-07-31T10:34:34;96261.50;;;21.25;52.27
71105;BME280;58760;48.716;8.962;2023-07-31T10:42:30;96254.38;;;21.35;53.42
71105;BME280;58760;48.716;8.962;2023-07-31T10:45:04;96256.47;;;21.50;53.99
71105;BME280;58760;48.716;8.962;2023-07-31T10:47:29;96258.16;;;21.56;51.90
71105;BME280;58760;48.716;8.962;2023-07-31T10:50:10;96255.97;;;21.53;51.84
71105;BME280;58760;48.716;8.962;2023-07-31T10:52:36;96249.91;;;21.63;53.20
71105;BME280;58760;48.716;8.962;2023-07-31T10:55:14;96257.50;;;21.66;53.97
71105;BME280;58760;48.716;8.962;2023-07-31T10:57:44;96250.19;;;21.83;51.56
71105;BME280;58760;48.716;8.962;2023-07-31T11:00:24;96242.56;;;21.58;51.47
71105;BME280;58760;48.716;8.962;2023-07-31T11:03:03;96244.13;;;21.54;52.46
71105;BME280;58760;48.716;8.962;2023-07-31T11:10:42;96234.50;;;21.63;53.72
71105;BME280;58760;48.716;8.962;2023-07-31T11:13:09;96241.06;;;21.67;54.02
71105;BME280;58760;48.716;8.962;2023-07-31T11:15:34;96249.75;;;21.53;53.55
71105;BME280;58760;48.716;8.962;2023-07-31T11:18:03;96249.94;;;21.46;53.49
71105;BME280;58760;48.716;8.962;2023-07-31T11:20:35;96246.28;;;21.35;54.30
71105;BME280;58760;48.716;8.962;2023-07-31T11:23:02;96249.69;;;21.48;54.38
71105;BME280;58760;48.716;8.962;2023-07-31T11:25:29;96237.50;;;21.45;54.49
71105;BME280;58760;48.716;8.962;2023-07-31T11:27:55;96238.56;;;21.44;54.74
71105;BME280;58760;48.716;8.962;2023-07-31T11:30:21;96237.69;;;21.38;54.76
71105;BME280;58760;48.716;8.962;2023-07-31T11:32:46;96236.69;;;21.45;54.40
71105;BME280;58760;48.716;8.962;2023-07-31T11:35:12;96236.69;;;21.45;55.01
71105;BME280;58760;48.716;8.962;2023-07-31T11:37:42;96235.88;;;21.44;53.43
71105;BME280;58760;48.716;8.962;2023-07-31T11:40:07;96234.72;;;21.40;55.33
71105;BME280;58760;48.716;8.962;2023-07-31T11:42:34;96226.22;;;21.31;54.80
71105;BME280;58760;48.716;8.962;2023-07-31T11:45:02;96224.19;;;21.22;54.90
71105;BME280;58760;48.716;8.962;2023-07-31T11:47:28;96223.94;;;21.07;54.52
71105;BME280;58760;48.716;8.962;2023-07-31T11:49:53;96216.50;;;21.14;55.33
71105;BME280;58760;48.716;8.962;2023-07-31T11:52:20;96206.84;;;21.18;55.49
71105;BME280;58760;48.716;8.962;2023-07-31T11:54:45;96215.38;;;21.10;54.79
71105;BME280;58760;48.716;8.962;2023-07-31T11:57:11;96208.91;;;21.11;54.17
71105;BME280;58760;48.716;8.962;2023-07-31T11:59:37;96199.41;;;21.08;54.86
71105;BME280;58760;48.716;8.962;2023-07-31T12:02:03;96197.88;;;21.12;55.06
71105;BME280;58760;48.716;8.962;2023-07-31T12:04:29;96191.50;;;21.18;54.81
71105;BME280;58760;48.716;8.962;2023-07-31T12:06:54;96201.72;;;21.16;54.89
71105;BME280;58760;48.716;8.962;2023-07-31T12:09:20;96198.75;;;21.18;54.09
71105;BME280;58760;48.716;8.962;2023-07-31T12:11:46;96213.81;;;21.14;53.95
71105;BME280;58760;48.716;8.962;2023-07-31T12:14:25;96204.47;;;21.05;54.02
71105;BME280;58760;48.716;8.962;2023-07-31T12:16:54;96207.16;;;21.05;55.14
71105;BME280;58760;48.716;8.962;2023-07-31T12:19:21;96200.47;;;20.91;54.90
71105;BME280;58760;48.716;8.962;2023-07-31T12:21:46;96193.78;;;20.93;55.29
71105;BME280;58760;48.716;8.962;2023-07-31T12:24:11;96195.00;;;20.85;54.66
71105;BME280;58760;48.716;8.962;2023-07-31T12:26:37;96189.75;;;20.96;55.62
71105;BME280;58760;48.716;8.962;2023-07-31T12:29:06;96189.44;;;20.92;55.28
71105;BME280;58760;48.716;8.962;2023-07-31T12:31:33;96184.44;;;21.01;55.16
71105;BME280;58760;48.716;8.962;2023-07-31T12:33:59;96184.28;;;21.24;55.26
71105;BME280;58760;48.716;8.962;2023-07-31T12:36:24;96179.69;;;21.24;55.14
71105;BME280;58760;48.716;8.962;2023-07-31T12:38:51;96172.47;;;21.30;55.38
71105;BME280;58760;48.716;8.962;2023-07-31T12:41:17;96173.34;;;21.52;54.83
71105;BME280;58760;48.716;8.962;2023-07-31T12:43:43;96171.22;;;21.98;53.45
71105;BME280;58760;48.716;8.962;2023-07-31T12:46:10;96157.56;;;22.36;53.66
71105;BME280;58760;48.716;8.962;2023-07-31T12:48:36;96156.06;;;22.77;50.59
71105;BME280;58760;48.716;8.962;2023-07-31T12:51:02;96150.97;;;23.22;52.20
71105;BME280;58760;48.716;8.962;2023-07-31T12:53:28;96149.16;;;23.38;49.37
71105;BME280;58760;48.716;8.962;2023-07-31T12:55:57;96135.19;;;24.23;48.25
71105;BME280;58760;48.716;8.962;2023-07-31T12:58:31;96132.19;;;24.15;48.02
71105;BME280;58760;48.716;8.962;2023-07-31T13:00:56;96129.94;;;23.86;47.85
71105;BME280;58760;48.716;8.962;2023-07-31T13:03:22;96139.66;;;23.87;48.29
71105;BME280;58760;48.716;8.962;2023-07-31T13:05:47;96124.66;;;24.67;46.90
71105;BME280;58760;48.716;8.962;2023-07-31T13:08:12;96132.44;;;25.39;43.82
71105;BME280;58760;48.716;8.962;2023-07-31T13:10:38;96126.78;;;25.36;44.35
71105;BME280;58760;48.716;8.962;2023-07-31T13:13:04;96121.97;;;24.92;45.60
71105;BME280;58760;48.716;8.962;2023-07-31T13:15:29;96117.34;;;24.58;46.52
71105;BME280;58760;48.716;8.962;2023-07-31T13:18:01;96117.28;;;24.22;47.59